Thor — THOR — position and weather

sailwx.info

Track history (hours):
 
Tides and Currents Weather Stations Pressure Air Temp Water Temp Dewpoint Dewpoint Depression Visibility Wind Speed Wind Dir Waves Ship Positions

Thor

Last reported at 2017-Dec-11 01:17 UTC. Time now 2017-Dec-14 17:15 UTC.
Position S 27°48' E 153°26'.

Length 17 m.

Type: Sailing vessel. MMSI: 503032880.

Date/timePositionNaut miles runAvg speedWind from/ knotsBaromVisibWave heightAir tempDewpointWater temp
2017-Dec-11 01:17S 27°48' E 153°26'0 0.0
2017-Dec-11 01:00S 27°48' E 153°26'3 5.4
2017-Dec-11 00:30S 27°50' E 153°24'3 5.7
2017-Dec-11 00:00S 27°53' E 153°24'3 5.2
2017-Dec-10 23:30S 27°51' E 153°21'  
2017-Dec-07 23:00S 27°52' E 153°20'0 0.0
2017-Dec-07 08:06S 27°52' E 153°20'0 0.0
2017-Dec-07 06:21S 27°52' E 153°20'0 0.2
2017-Dec-07 06:00S 27°52' E 153°20'0 0.0
2017-Dec-07 05:30S 27°52' E 153°20'0 0.1
2017-Dec-07 05:00S 27°52' E 153°20'0 0.1
2017-Dec-07 04:30S 27°52' E 153°20'0 0.0
2017-Dec-07 04:00S 27°52' E 153°20'0 0.0
2017-Dec-07 01:06S 27°52' E 153°20'0 0.1
2017-Dec-07 01:00S 27°52' E 153°20'0 0.0
2017-Dec-07 00:30S 27°52' E 153°20'2 3.3
2017-Dec-07 00:00S 27°51' E 153°21'3 5.3
2017-Dec-06 23:30S 27°52' E 153°24'1 1.6
2017-Dec-06 22:59S 27°53' E 153°24'  
2017-Dec-04 05:09S 27°47' E 153°26'0 0.0
2017-Dec-04 05:00S 27°47' E 153°26'0 0.1
2017-Dec-04 04:30S 27°47' E 153°26'0 0.0
2017-Dec-04 04:00S 27°47' E 153°26'0 0.0
2017-Dec-04 03:30S 27°47' E 153°26'2 3.2
2017-Dec-04 03:01S 27°49' E 153°25'2 4.5
2017-Dec-04 02:30S 27°47' E 153°23'3 6.2
2017-Dec-04 02:01S 27°45' E 153°21'4 7.1
2017-Dec-04 01:31S 27°41' E 153°22'3 6.1
2017-Dec-04 01:00S 27°38' E 153°22'3 5.4
2017-Dec-04 00:31S 27°36' E 153°24'19 0.9
2017-Dec-03 03:49S 27°21' E 153°11'  
Track history (hours):
 
Tides and Currents Weather Stations Pressure Air Temp Water Temp Dewpoint Dewpoint Depression Visibility Wind Speed Wind Dir Waves Ship Positions

Thor

Last reported at 2017-Dec-11 01:17 UTC. Time now 2017-Dec-14 17:15 UTC.
Position S 27°48' E 153°26'.

Length 17 m.

Type: Sailing vessel. MMSI: 503032880.

Date/timePositionNaut miles runAvg speedWind from/ knotsBaromVisibWave heightAir tempDewpointWater temp
2017-Dec-11 01:17S 27°48' E 153°26'0 0.0
2017-Dec-11 01:00S 27°48' E 153°26'3 5.4
2017-Dec-11 00:30S 27°50' E 153°24'3 5.7
2017-Dec-11 00:00S 27°53' E 153°24'3 5.2
2017-Dec-10 23:30S 27°51' E 153°21'  
2017-Dec-07 23:00S 27°52' E 153°20'0 0.0
2017-Dec-07 08:06S 27°52' E 153°20'0 0.0
2017-Dec-07 06:21S 27°52' E 153°20'0 0.2
2017-Dec-07 06:00S 27°52' E 153°20'0 0.0
2017-Dec-07 05:30S 27°52' E 153°20'0 0.1
2017-Dec-07 05:00S 27°52' E 153°20'0 0.1
2017-Dec-07 04:30S 27°52' E 153°20'0 0.0
2017-Dec-07 04:00S 27°52' E 153°20'0 0.0
2017-Dec-07 01:06S 27°52' E 153°20'0 0.1
2017-Dec-07 01:00S 27°52' E 153°20'0 0.0
2017-Dec-07 00:30S 27°52' E 153°20'2 3.3
2017-Dec-07 00:00S 27°51' E 153°21'3 5.3
2017-Dec-06 23:30S 27°52' E 153°24'1 1.6
2017-Dec-06 22:59S 27°53' E 153°24'  
2017-Dec-04 05:09S 27°47' E 153°26'0 0.0
2017-Dec-04 05:00S 27°47' E 153°26'0 0.1
2017-Dec-04 04:30S 27°47' E 153°26'0 0.0
2017-Dec-04 04:00S 27°47' E 153°26'0 0.0
2017-Dec-04 03:30S 27°47' E 153°26'2 3.2
2017-Dec-04 03:01S 27°49' E 153°25'2 4.5
2017-Dec-04 02:30S 27°47' E 153°23'3 6.2
2017-Dec-04 02:01S 27°45' E 153°21'4 7.1
2017-Dec-04 01:31S 27°41' E 153°22'3 6.1
2017-Dec-04 01:00S 27°38' E 153°22'3 5.4
2017-Dec-04 00:31S 27°36' E 153°24'19 0.9
2017-Dec-03 03:49S 27°21' E 153°11'  

Dump ship's entire track history